createdAt,value
2023-05-14T00:00:59.484Z,10.30
2023-05-14T00:03:26.592Z,14.00
2023-05-14T00:05:53.612Z,6.40
2023-05-14T00:08:20.637Z,8.20
2023-05-14T00:10:47.603Z,11.50
2023-05-14T00:13:14.502Z,7.20
2023-05-14T00:15:41.544Z,9.40
2023-05-14T00:18:12.341Z,9.10
2023-05-14T00:20:39.504Z,13.70
2023-05-14T00:23:06.501Z,10.30
2023-05-14T00:25:33.467Z,11.70
2023-05-14T00:28:00.430Z,10.20
2023-05-14T00:30:27.332Z,12.40
2023-05-14T00:32:54.360Z,12.40
2023-05-14T00:35:21.716Z,8.00
2023-05-14T00:37:48.722Z,11.50
2023-05-14T00:40:15.911Z,5.40
2023-05-14T00:42:42.831Z,8.60
2023-05-14T00:45:10.485Z,7.60
2023-05-14T00:47:39.533Z,8.80
2023-05-14T00:50:07.309Z,15.20
2023-05-14T00:52:34.241Z,8.80
2023-05-14T00:55:03.398Z,9.00
2023-05-14T00:57:30.601Z,11.40
2023-05-14T00:59:58.369Z,12.90
2023-05-14T01:02:25.428Z,9.20
2023-05-14T01:04:52.468Z,10.20
2023-05-14T01:07:40.574Z,14.10
2023-05-14T01:10:32.993Z,8.20
2023-05-14T01:13:44.690Z,7.90
2023-05-14T01:16:13.545Z,11.20
2023-05-14T01:18:41.668Z,12.20
2023-05-14T01:21:42.950Z,12.20
2023-05-14T01:24:09.960Z,7.40
2023-05-14T01:26:37.068Z,11.20
2023-05-14T01:29:20.811Z,10.30
2023-05-14T01:31:48.067Z,9.10
2023-05-14T01:34:15.175Z,11.50
2023-05-14T01:36:42.390Z,11.90
2023-05-14T01:39:09.980Z,15.00
2023-05-14T01:41:37.585Z,11.50
2023-05-14T01:44:04.568Z,12.80
2023-05-14T01:46:32.966Z,9.40
2023-05-14T01:49:00.486Z,14.40
2023-05-14T01:51:27.549Z,15.40
2023-05-14T01:53:54.560Z,10.20
2023-05-14T01:56:23.678Z,17.10
2023-05-14T01:58:50.671Z,10.00
2023-05-14T02:01:17.711Z,12.40
2023-05-14T02:03:44.624Z,8.50
2023-05-14T02:06:11.642Z,8.50
2023-05-14T02:08:38.695Z,14.50
2023-05-14T02:11:05.746Z,24.00
2023-05-14T02:13:32.635Z,14.10
2023-05-14T02:15:59.619Z,10.40
2023-05-14T02:18:26.603Z,20.50
2023-05-14T02:20:53.570Z,6.80
2023-05-14T02:23:25.685Z,9.60
2023-05-14T02:25:58.247Z,11.50
2023-05-14T02:28:25.260Z,13.10
2023-05-14T02:30:52.173Z,9.50
2023-05-14T02:33:19.337Z,6.00
2023-05-14T02:35:46.343Z,13.20
2023-05-14T02:38:13.624Z,6.30
2023-05-14T02:40:40.507Z,10.70
2023-05-14T02:43:07.433Z,8.50
2023-05-14T02:45:35.895Z,14.30
2023-05-14T02:48:02.951Z,14.50
2023-05-14T02:50:30.972Z,16.20
2023-05-14T02:52:57.883Z,11.50
2023-05-14T02:55:26.608Z,8.70
2023-05-14T02:57:53.556Z,9.60
2023-05-14T03:00:20.750Z,7.30
2023-05-14T03:02:48.671Z,13.10
2023-05-14T03:05:16.138Z,12.50
2023-05-14T03:07:43.286Z,8.30
2023-05-14T03:10:10.695Z,6.10
2023-05-14T03:12:37.696Z,7.10
2023-05-14T03:15:05.221Z,8.50
2023-05-14T03:17:32.217Z,7.70
2023-05-14T03:19:59.241Z,11.70
2023-05-14T03:22:27.077Z,11.60
2023-05-14T03:24:54.088Z,15.30
2023-05-14T03:27:21.106Z,11.60
2023-05-14T03:29:47.982Z,19.40
2023-05-14T03:32:15.133Z,13.10
2023-05-14T03:34:42.441Z,5.90
2023-05-14T03:37:09.374Z,8.90
2023-05-14T03:39:36.622Z,12.60
2023-05-14T03:42:05.411Z,10.30
2023-05-14T03:44:32.270Z,14.20
2023-05-14T03:46:59.336Z,11.00
2023-05-14T03:49:26.514Z,12.20
2023-05-14T03:51:53.486Z,10.80
2023-05-14T03:54:20.535Z,11.20
2023-05-14T03:56:47.645Z,11.80
2023-05-14T03:59:14.615Z,13.20
2023-05-14T04:01:41.591Z,16.10
2023-05-14T04:04:08.655Z,22.30
2023-05-14T04:06:35.703Z,7.90
2023-05-14T04:09:03.548Z,14.40
2023-05-14T04:11:30.599Z,5.80
2023-05-14T04:13:58.289Z,11.60
2023-05-14T04:16:25.239Z,9.60
2023-05-14T04:18:52.263Z,5.30
2023-05-14T04:21:19.253Z,6.80
2023-05-14T04:23:46.264Z,7.60
2023-05-14T04:26:13.282Z,6.90
2023-05-14T04:28:40.709Z,4.40
2023-05-14T04:31:07.739Z,7.90
2023-05-14T04:33:34.684Z,7.40
2023-05-14T04:36:02.190Z,10.20
2023-05-14T04:38:29.295Z,7.40
2023-05-14T04:40:57.029Z,8.30
2023-05-14T04:43:24.038Z,6.50
2023-05-14T04:45:52.529Z,7.60
2023-05-14T04:48:19.673Z,12.50
2023-05-14T04:50:46.653Z,5.50
2023-05-14T04:53:13.516Z,4.70
2023-05-14T04:55:41.478Z,6.10
2023-05-14T04:58:08.452Z,5.80
2023-05-14T05:00:35.434Z,11.40
2023-05-14T05:03:02.439Z,9.90
2023-05-14T05:05:29.415Z,12.40
2023-05-14T05:07:56.457Z,13.60
2023-05-14T05:10:23.888Z,12.00
2023-05-14T05:12:51.005Z,10.20
2023-05-14T05:15:18.063Z,14.80
2023-05-14T05:17:45.026Z,16.00
2023-05-14T05:20:12.841Z,10.40
2023-05-14T05:22:39.871Z,9.10
2023-05-14T05:25:08.231Z,6.60
2023-05-14T05:27:35.492Z,13.00
2023-05-14T05:30:02.560Z,6.90
2023-05-14T05:32:29.856Z,8.50
2023-05-14T05:34:57.087Z,6.70
2023-05-14T05:37:24.062Z,8.40
2023-05-14T05:39:51.009Z,6.00
2023-05-14T05:42:17.905Z,4.60
2023-05-14T05:44:44.934Z,7.60
2023-05-14T05:47:11.950Z,4.00
2023-05-14T05:49:38.870Z,5.10
2023-05-14T05:52:05.874Z,4.20
2023-05-14T05:54:32.960Z,4.30
2023-05-14T05:57:00.077Z,6.70
2023-05-14T05:59:27.133Z,4.90
2023-05-14T06:01:54.231Z,4.40
2023-05-14T06:04:21.135Z,5.20
2023-05-14T06:06:48.077Z,5.30
2023-05-14T06:09:15.084Z,4.60
2023-05-14T06:11:42.031Z,7.70
2023-05-14T06:14:09.107Z,5.10
2023-05-14T06:16:36.093Z,8.10
2023-05-14T06:19:03.171Z,4.50
2023-05-14T06:21:30.125Z,4.90
2023-05-14T06:23:57.203Z,4.00
2023-05-14T06:26:24.058Z,7.10
2023-05-14T06:28:51.086Z,5.60
2023-05-14T06:31:19.040Z,7.50
2023-05-14T06:33:46.106Z,5.80
2023-05-14T06:36:13.121Z,2.10
2023-05-14T06:38:40.111Z,4.10
2023-05-14T06:41:07.079Z,7.70
2023-05-14T06:43:34.028Z,4.90
2023-05-14T06:46:01.518Z,3.30
2023-05-14T06:48:29.585Z,2.20
2023-05-14T06:50:56.618Z,7.10
2023-05-14T06:53:23.648Z,2.40
2023-05-14T06:55:50.917Z,3.70
2023-05-14T06:58:17.903Z,2.10
2023-05-14T07:00:44.890Z,2.80
2023-05-14T07:03:11.780Z,4.10
2023-05-14T07:05:40.701Z,3.10
2023-05-14T07:08:07.620Z,2.10
2023-05-14T07:10:34.565Z,2.70
2023-05-14T07:13:01.520Z,4.20
2023-05-14T07:15:28.393Z,3.20
2023-05-14T07:17:55.471Z,3.60
2023-05-14T07:20:24.394Z,2.90
2023-05-14T07:22:52.373Z,3.90
2023-05-14T07:25:19.286Z,2.80
2023-05-14T07:27:46.268Z,2.60
2023-05-14T07:30:13.452Z,3.50
2023-05-14T07:32:40.694Z,2.60
2023-05-14T07:35:08.457Z,1.90
2023-05-14T07:37:35.392Z,2.70
2023-05-14T07:40:02.386Z,2.40
2023-05-14T07:42:36.783Z,3.90
2023-05-14T07:45:05.379Z,2.40
2023-05-14T07:47:32.452Z,2.20
2023-05-14T07:49:59.666Z,5.60
2023-05-14T07:52:26.601Z,1.90
2023-05-14T07:54:53.597Z,5.80
2023-05-14T07:57:20.549Z,2.10
2023-05-14T07:59:48.148Z,5.40
2023-05-14T08:02:17.100Z,2.90
2023-05-14T08:04:44.647Z,7.50
2023-05-14T08:07:11.809Z,8.20
2023-05-14T08:09:38.829Z,6.00
2023-05-14T08:12:06.340Z,6.40
2023-05-14T08:14:33.388Z,2.70
2023-05-14T08:17:00.516Z,4.30
2023-05-14T08:19:28.041Z,1.60
2023-05-14T08:21:54.946Z,2.90
2023-05-14T08:24:21.923Z,4.90
2023-05-14T08:26:48.928Z,4.70
2023-05-14T08:29:16.678Z,3.40
2023-05-14T08:31:44.114Z,2.30
2023-05-14T08:34:11.140Z,2.10
2023-05-14T08:36:38.871Z,4.50
2023-05-14T08:39:07.982Z,4.80
2023-05-14T08:41:35.127Z,5.40
2023-05-14T08:44:09.515Z,6.50
2023-05-14T08:46:37.081Z,6.30
2023-05-14T08:49:40.990Z,5.00
2023-05-14T08:52:11.584Z,2.70
2023-05-14T08:54:38.997Z,4.20
2023-05-14T08:57:06.327Z,2.80
2023-05-14T08:59:33.213Z,7.10
2023-05-14T09:02:02.146Z,1.50
2023-05-14T09:04:29.770Z,2.20
2023-05-14T09:06:56.728Z,2.90
2023-05-14T09:09:23.684Z,3.70
2023-05-14T09:11:51.612Z,5.80
2023-05-14T09:14:18.663Z,5.50
2023-05-14T09:16:46.104Z,4.20
2023-05-14T09:19:13.812Z,3.90
2023-05-14T09:21:41.052Z,2.50
2023-05-14T09:24:08.115Z,4.00
2023-05-14T09:26:35.353Z,4.60
2023-05-14T09:29:02.677Z,2.30
2023-05-14T09:31:31.063Z,7.00
2023-05-14T09:33:58.425Z,4.20
2023-05-14T09:36:27.203Z,5.00
2023-05-14T09:38:56.933Z,3.10
2023-05-14T09:41:24.446Z,3.80
2023-05-14T09:43:51.698Z,5.00
2023-05-14T09:46:18.562Z,5.10
2023-05-14T09:48:46.156Z,5.10
2023-05-14T09:51:13.324Z,3.00
2023-05-14T09:53:41.359Z,3.10
2023-05-14T09:56:08.386Z,3.80
2023-05-14T09:58:35.295Z,9.00
2023-05-14T10:01:02.711Z,3.50
2023-05-14T10:03:29.967Z,3.10
2023-05-14T10:06:00.037Z,2.10
2023-05-14T10:08:28.472Z,2.50
2023-05-14T10:10:56.161Z,6.90
2023-05-14T10:13:24.686Z,2.20
2023-05-14T10:16:13.967Z,4.20
2023-05-14T10:18:43.152Z,5.60
2023-05-14T10:21:10.166Z,8.00
2023-05-14T10:23:40.743Z,4.10
2023-05-14T10:26:08.364Z,5.30
2023-05-14T10:28:35.553Z,2.30
2023-05-14T10:31:02.611Z,4.30
2023-05-14T10:33:29.743Z,5.60
2023-05-14T10:36:07.349Z,3.00
2023-05-14T10:38:37.557Z,3.50
2023-05-14T10:41:12.206Z,3.20
2023-05-14T10:43:40.171Z,2.70
2023-05-14T10:46:07.780Z,3.10
2023-05-14T10:48:34.826Z,2.20
2023-05-14T10:51:02.640Z,6.40
2023-05-14T10:53:37.274Z,7.20
2023-05-14T10:56:13.963Z,3.40
2023-05-14T10:58:43.043Z,4.40
2023-05-14T11:01:11.171Z,5.80
2023-05-14T11:03:43.920Z,6.30
2023-05-14T11:06:11.745Z,2.30
2023-05-14T11:08:38.972Z,1.60
2023-05-14T11:11:09.211Z,5.80
2023-05-14T11:13:36.208Z,7.90
2023-05-14T11:16:12.018Z,6.50
2023-05-14T11:18:49.206Z,3.60
2023-05-14T11:21:17.479Z,3.30
2023-05-14T11:23:46.692Z,4.40
2023-05-14T11:26:13.784Z,7.90
2023-05-14T11:28:40.902Z,12.00
2023-05-14T11:31:07.917Z,15.70
2023-05-14T11:33:34.895Z,9.30
2023-05-14T11:36:02.217Z,7.00
2023-05-14T11:38:29.209Z,5.50
2023-05-14T11:40:57.085Z,1.50
2023-05-14T11:43:24.149Z,3.40
2023-05-14T11:45:52.552Z,4.70
2023-05-14T11:48:20.540Z,4.10
2023-05-14T11:50:48.566Z,2.00
2023-05-14T11:53:29.581Z,2.40
2023-05-14T11:55:58.062Z,6.10
2023-05-14T11:58:25.063Z,2.00
2023-05-14T12:00:52.856Z,2.20
2023-05-14T12:03:25.725Z,3.30
2023-05-14T12:05:59.772Z,6.50
2023-05-14T12:08:28.272Z,1.60
2023-05-14T12:10:55.640Z,1.90
2023-05-14T12:13:22.869Z,3.90
2023-05-14T12:15:57.064Z,5.40
2023-05-14T12:18:33.827Z,3.00
2023-05-14T12:21:04.501Z,4.70
2023-05-14T12:23:31.878Z,4.30
2023-05-14T12:26:03.684Z,2.90
2023-05-14T12:28:31.182Z,4.90
2023-05-14T12:30:58.641Z,3.30
2023-05-14T12:33:28.822Z,2.50
2023-05-14T12:36:09.937Z,2.90
2023-05-14T12:38:47.155Z,2.50
2023-05-14T12:41:14.036Z,3.60
2023-05-14T12:43:43.220Z,4.30
2023-05-14T12:46:10.752Z,5.00
2023-05-14T12:48:37.680Z,3.90
2023-05-14T12:51:04.688Z,8.10
2023-05-14T12:53:31.612Z,2.90
2023-05-14T12:55:58.776Z,5.30
2023-05-14T12:58:25.654Z,3.70
2023-05-14T13:00:52.546Z,2.50
2023-05-14T13:03:19.679Z,2.30
2023-05-14T13:05:46.708Z,2.20
2023-05-14T13:08:17.894Z,7.30
2023-05-14T13:10:45.045Z,3.80
2023-05-14T13:13:12.150Z,3.00
2023-05-14T13:15:39.168Z,5.90
2023-05-14T13:18:06.290Z,8.60
2023-05-14T13:20:33.916Z,2.60
2023-05-14T13:23:00.786Z,3.90
2023-05-14T13:25:27.761Z,21.10
2023-05-14T13:27:55.241Z,10.90
2023-05-14T13:30:22.279Z,10.80
2023-05-14T13:32:49.264Z,4.30
2023-05-14T13:35:16.314Z,3.30
2023-05-14T13:37:43.965Z,4.10
2023-05-14T13:40:11.352Z,6.00
2023-05-14T13:42:39.949Z,3.60
2023-05-14T13:45:07.523Z,3.60
2023-05-14T13:47:34.514Z,5.20
2023-05-14T13:50:01.481Z,6.10
2023-05-14T13:52:28.358Z,4.80
2023-05-14T13:54:55.402Z,4.90
2023-05-14T13:57:23.245Z,7.10
2023-05-14T13:59:50.153Z,2.50
2023-05-14T14:02:17.800Z,2.40
2023-05-14T14:04:44.933Z,5.40
2023-05-14T14:07:11.922Z,3.10
2023-05-14T14:09:39.042Z,2.70
2023-05-14T14:12:06.752Z,3.80
2023-05-14T14:14:33.865Z,12.80
2023-05-14T14:17:00.879Z,4.10
2023-05-14T14:19:27.897Z,3.20
2023-05-14T14:21:54.902Z,3.90
2023-05-14T14:24:21.896Z,3.00
2023-05-14T14:26:48.732Z,3.10
2023-05-14T14:29:15.726Z,10.30
2023-05-14T14:31:43.662Z,4.10
2023-05-14T14:34:10.911Z,3.70
2023-05-14T14:36:37.884Z,2.60
2023-05-14T14:39:04.952Z,1.60
2023-05-14T14:41:31.911Z,5.30
2023-05-14T14:43:58.862Z,2.50
2023-05-14T14:46:25.983Z,1.90
2023-05-14T14:48:53.136Z,7.10
2023-05-14T14:51:20.007Z,5.50
2023-05-14T14:53:47.025Z,4.80
2023-05-14T14:56:13.980Z,2.90
2023-05-14T14:58:40.993Z,2.80
2023-05-14T15:01:07.946Z,8.70
2023-05-14T15:03:35.368Z,2.70
2023-05-14T15:06:02.448Z,3.90
2023-05-14T15:08:29.428Z,5.70
2023-05-14T15:10:56.659Z,2.20
2023-05-14T15:13:24.763Z,3.00
2023-05-14T15:15:52.599Z,2.60
2023-05-14T15:18:19.776Z,4.50
2023-05-14T15:20:46.854Z,6.10
2023-05-14T15:23:13.874Z,2.00
2023-05-14T15:25:40.777Z,7.60
2023-05-14T15:28:07.806Z,2.80
2023-05-14T15:30:34.880Z,3.10
2023-05-14T15:33:01.933Z,4.70
2023-05-14T15:35:29.049Z,18.60
2023-05-14T15:37:59.463Z,13.80
2023-05-14T15:40:27.397Z,6.00
2023-05-14T15:42:54.999Z,13.50
2023-05-14T15:45:21.962Z,6.00
2023-05-14T15:47:48.966Z,6.00
2023-05-14T15:50:15.938Z,4.30
2023-05-14T15:52:42.856Z,9.40
2023-05-14T15:55:10.410Z,4.50
2023-05-14T15:57:37.340Z,5.60
2023-05-14T16:00:13.169Z,6.10
2023-05-14T16:02:40.334Z,7.00
2023-05-14T16:05:08.440Z,8.00
2023-05-14T16:07:36.089Z,4.50
2023-05-14T16:10:03.576Z,3.90
2023-05-14T16:12:30.747Z,6.60
2023-05-14T16:14:57.804Z,2.90
2023-05-14T16:17:24.844Z,4.80
2023-05-14T16:19:53.452Z,5.00
2023-05-14T16:22:22.330Z,2.10
2023-05-14T16:24:49.246Z,5.00
2023-05-14T16:27:18.479Z,4.40
2023-05-14T16:29:45.611Z,10.20
2023-05-14T16:32:12.748Z,4.90
2023-05-14T16:34:39.982Z,3.80
2023-05-14T16:37:06.862Z,5.20
2023-05-14T16:39:33.754Z,4.60
2023-05-14T16:42:00.713Z,6.00
2023-05-14T16:44:27.725Z,4.50
2023-05-14T16:46:54.688Z,3.00
2023-05-14T16:49:22.588Z,3.10
2023-05-14T16:51:49.592Z,16.80
2023-05-14T16:54:16.751Z,10.50
2023-05-14T16:56:48.293Z,8.00
2023-05-14T16:59:15.848Z,11.70
2023-05-14T17:01:43.503Z,13.20
2023-05-14T17:04:10.611Z,9.10
2023-05-14T17:06:37.487Z,9.30
2023-05-14T17:09:04.417Z,7.70
2023-05-14T17:11:31.336Z,12.70
2023-05-14T17:13:58.264Z,16.70
2023-05-14T17:16:26.124Z,8.80
2023-05-14T17:18:53.107Z,10.40
2023-05-14T17:21:20.150Z,6.10
2023-05-14T17:23:47.157Z,4.80
2023-05-14T17:26:14.063Z,6.60
2023-05-14T17:28:41.053Z,4.30
2023-05-14T17:31:08.054Z,3.40
2023-05-14T17:33:35.021Z,4.00
2023-05-14T17:36:02.030Z,6.50
2023-05-14T17:38:29.005Z,3.40
2023-05-14T17:40:55.930Z,7.50
2023-05-14T17:43:22.798Z,8.50
2023-05-14T17:45:54.543Z,10.30
2023-05-14T17:48:23.307Z,5.00
2023-05-14T17:50:51.755Z,5.40
2023-05-14T17:53:18.803Z,4.10
2023-05-14T17:55:45.969Z,3.40
2023-05-14T17:58:14.524Z,13.10
2023-05-14T18:00:41.652Z,4.60
2023-05-14T18:03:08.720Z,5.80
2023-05-14T18:05:35.686Z,5.40
2023-05-14T18:08:02.736Z,8.40
2023-05-14T18:10:29.852Z,5.60
2023-05-14T18:12:56.911Z,4.30
2023-05-14T18:15:25.718Z,4.20
2023-05-14T18:17:53.154Z,14.40
2023-05-14T18:20:20.293Z,24.10
2023-05-14T18:22:47.191Z,28.20
2023-05-14T18:25:14.209Z,17.60
2023-05-14T18:27:44.707Z,11.80
2023-05-14T18:30:13.906Z,13.60
2023-05-14T18:32:41.851Z,12.40
2023-05-14T18:35:09.423Z,11.70
2023-05-14T18:37:36.656Z,23.00
2023-05-14T18:40:04.866Z,8.60
2023-05-14T18:42:31.753Z,18.10
2023-05-14T18:44:58.690Z,15.00
2023-05-14T18:47:25.702Z,31.00
2023-05-14T18:49:55.385Z,18.90
2023-05-14T18:52:23.155Z,21.20
2023-05-14T18:54:50.939Z,11.60
2023-05-14T18:57:17.880Z,20.30
2023-05-14T18:59:44.880Z,24.80
2023-05-14T19:02:11.956Z,20.40
2023-05-14T19:04:51.273Z,23.60
2023-05-14T19:07:19.771Z,20.50
2023-05-14T19:09:46.717Z,25.50
2023-05-14T19:12:14.108Z,23.60
2023-05-14T19:14:41.051Z,28.20
2023-05-14T19:17:07.993Z,28.50
2023-05-14T19:19:34.843Z,17.90
2023-05-14T19:22:01.761Z,15.10
2023-05-14T19:24:28.756Z,18.10
2023-05-14T19:26:56.038Z,16.20
2023-05-14T19:29:23.069Z,28.20
2023-05-14T19:31:50.163Z,12.50
2023-05-14T19:34:17.215Z,23.30
2023-05-14T19:36:44.170Z,29.00
2023-05-14T19:39:11.111Z,45.70
2023-05-14T19:41:38.136Z,32.90
2023-05-14T19:44:05.152Z,25.00
2023-05-14T19:46:32.180Z,29.60
2023-05-14T19:48:59.240Z,24.90
2023-05-14T19:51:26.340Z,24.50
2023-05-14T19:53:53.297Z,18.00
2023-05-14T19:56:20.190Z,17.20
2023-05-14T19:58:47.274Z,11.20
2023-05-14T20:01:14.790Z,14.40
2023-05-14T20:03:42.036Z,10.40
2023-05-14T20:06:09.101Z,12.00
2023-05-14T20:08:36.088Z,16.10
2023-05-14T20:11:03.450Z,22.60
2023-05-14T20:13:33.260Z,23.00
2023-05-14T20:16:00.208Z,25.80
2023-05-14T20:18:27.338Z,25.80
2023-05-14T20:20:54.943Z,31.00
2023-05-14T20:23:21.893Z,29.90
2023-05-14T20:25:48.866Z,21.50
2023-05-14T20:28:15.889Z,25.00
2023-05-14T20:30:42.918Z,20.10
2023-05-14T20:33:10.201Z,21.10
2023-05-14T20:35:37.363Z,28.20
2023-05-14T20:38:04.353Z,18.70
2023-05-14T20:40:32.834Z,25.70
2023-05-14T20:42:59.952Z,11.60
2023-05-14T20:45:27.291Z,12.70
2023-05-14T20:47:54.520Z,20.30
2023-05-14T20:50:22.696Z,14.20
2023-05-14T20:52:49.588Z,18.20
2023-05-14T20:55:16.808Z,18.10
2023-05-14T20:57:43.890Z,11.40
2023-05-14T21:00:11.413Z,28.40
2023-05-14T21:02:38.714Z,22.40
2023-05-14T21:05:06.594Z,20.10
2023-05-14T21:07:33.696Z,27.80
2023-05-14T21:10:01.848Z,16.50
2023-05-14T21:12:28.876Z,28.70
2023-05-14T21:14:56.012Z,13.30
2023-05-14T21:17:22.958Z,20.00
2023-05-14T21:19:50.114Z,12.60
2023-05-14T21:22:17.072Z,10.90
2023-05-14T21:24:44.007Z,13.40
2023-05-14T21:27:10.943Z,10.40
2023-05-14T21:29:37.898Z,21.50
2023-05-14T21:32:05.778Z,19.50
2023-05-14T21:34:32.849Z,13.80
2023-05-14T21:36:59.759Z,24.20
2023-05-14T21:39:26.664Z,18.50
2023-05-14T21:41:53.650Z,14.40
2023-05-14T21:44:21.812Z,12.20
2023-05-14T21:46:48.688Z,19.90
2023-05-14T21:49:15.568Z,13.80
2023-05-14T21:51:42.982Z,18.00
2023-05-14T21:54:09.869Z,12.00
2023-05-14T21:56:37.255Z,10.40
2023-05-14T21:59:05.035Z,12.50
2023-05-14T22:01:33.795Z,10.80
2023-05-14T22:04:05.745Z,19.20
2023-05-14T22:06:33.852Z,14.70
2023-05-14T22:09:00.743Z,9.60
2023-05-14T22:11:28.022Z,20.70
2023-05-14T22:13:54.866Z,13.20
2023-05-14T22:16:22.550Z,12.90
2023-05-14T22:18:49.685Z,12.40
2023-05-14T22:21:16.759Z,17.20
2023-05-14T22:23:43.872Z,26.10
2023-05-14T22:26:11.320Z,16.20
2023-05-14T22:28:42.882Z,17.30
2023-05-14T22:31:10.463Z,8.30
2023-05-14T22:33:37.540Z,11.30
2023-05-14T22:36:07.088Z,10.90
2023-05-14T22:38:34.291Z,8.70
2023-05-14T22:41:01.303Z,12.70
2023-05-14T22:43:28.764Z,16.20
2023-05-14T22:45:55.732Z,10.70
2023-05-14T22:48:22.648Z,16.30
2023-05-14T22:50:49.477Z,10.00
2023-05-14T22:53:16.376Z,8.20
2023-05-14T22:55:43.357Z,14.20
2023-05-14T22:58:10.401Z,9.60
2023-05-14T23:00:37.483Z,6.10
2023-05-14T23:03:04.589Z,10.40
2023-05-14T23:05:31.541Z,7.60
2023-05-14T23:07:58.443Z,12.00
2023-05-14T23:10:25.511Z,8.10
2023-05-14T23:12:52.388Z,9.20
2023-05-14T23:15:19.366Z,12.50
2023-05-14T23:17:46.437Z,7.80
2023-05-14T23:20:13.703Z,9.40
2023-05-14T23:22:40.915Z,6.10
2023-05-14T23:25:08.250Z,10.10
2023-05-14T23:27:35.515Z,13.50
2023-05-14T23:30:03.815Z,11.10
2023-05-14T23:32:30.950Z,8.20
2023-05-14T23:34:58.120Z,7.90
2023-05-14T23:37:24.994Z,6.70
2023-05-14T23:39:52.308Z,10.00
2023-05-14T23:42:19.321Z,7.50
2023-05-14T23:44:46.366Z,8.60
2023-05-14T23:47:13.349Z,9.50
2023-05-14T23:49:40.930Z,8.70
2023-05-14T23:52:07.899Z,19.50
2023-05-14T23:54:34.937Z,16.40
2023-05-14T23:57:03.382Z,25.40
2023-05-14T23:59:30.372Z,12.30
